Time;durP1;ratioP1;P1;durP2;ratioP2;P2;SDS_P1;SDS_P2;PMS_P1;PMS_P2;Temp;Humidity;BMP_temperature;BMP_pressure;BME280_temperature;BME280_humidity;BME280_pressure;Samples;Min_cycle;Max_cycle;Signal;HPM_P1;HPM_P2
2021/09/19 00:01:18;;;;;;;2.17;1.30;;;24.90;51.00;;;;;;5035466;28;20512;-54
2021/09/19 00:03:43;;;;;;;2.85;1.45;;;24.90;51.00;;;;;;5035298;28;20028;-59
2021/09/19 00:06:09;;;;;;;2.13;1.50;;;24.90;51.00;;;;;;5034997;28;20716;-57
2021/09/19 00:08:34;;;;;;;2.20;1.50;;;24.90;51.00;;;;;;5034707;28;20029;-59
2021/09/19 00:11:00;;;;;;;1.95;1.38;;;24.90;51.00;;;;;;5041717;28;20075;-58
2021/09/19 00:13:26;;;;;;;2.58;1.50;;;24.80;51.00;;;;;;5055919;28;20092;-53
2021/09/19 00:15:52;;;;;;;2.00;1.48;;;24.80;51.00;;;;;;5041999;28;20028;-57
2021/09/19 00:18:18;;;;;;;2.33;1.40;;;24.80;51.00;;;;;;5039766;28;20108;-59
2021/09/19 00:20:45;;;;;;;2.05;1.42;;;24.80;51.00;;;;;;5047721;28;20182;-56
2021/09/19 00:23:11;;;;;;;1.52;1.20;;;24.80;51.00;;;;;;5046268;28;20028;-54
2021/09/19 00:25:37;;;;;;;2.20;1.35;;;24.80;51.10;;;;;;5032269;28;20444;-60
2021/09/19 00:28:04;;;;;;;2.47;1.80;;;24.80;51.00;;;;;;5030052;28;20059;-57
2021/09/19 00:30:30;;;;;;;3.88;1.95;;;24.80;51.00;;;;;;5044072;28;20096;-60
2021/09/19 00:32:55;;;;;;;2.00;1.30;;;24.80;51.10;;;;;;5045315;28;20096;-59
2021/09/19 00:35:21;;;;;;;1.98;1.30;;;24.80;51.10;;;;;;5047332;28;20148;-59
2021/09/19 00:37:46;;;;;;;2.00;1.45;;;24.70;51.10;;;;;;5042334;28;20892;-54
2021/09/19 00:40:13;;;;;;;2.33;1.50;;;24.80;51.10;;;;;;5033209;28;20113;-60
2021/09/19 00:42:38;;;;;;;1.83;1.30;;;24.70;51.10;;;;;;5038599;28;20484;-59
2021/09/19 00:45:08;;;;;;;2.50;1.50;;;24.70;51.60;;;;;;5045891;28;20135;-53
2021/09/19 00:47:33;;;;;;;;;;;24.70;51.10;;;;;;5038822;28;20041;-57
2021/09/19 00:49:59;;;;;;;2.17;1.48;;;24.70;51.10;;;;;;5031293;28;20549;-57
2021/09/19 00:52:26;;;;;;;2.33;1.60;;;24.70;51.10;;;;;;5045287;28;20037;-58
2021/09/19 00:54:58;;;;;;;2.20;1.30;;;24.70;51.10;;;;;;5043988;28;20112;-59
2021/09/19 00:57:26;;;;;;;1.67;1.30;;;24.70;51.10;;;;;;5029583;28;20043;-60
2021/09/19 00:59:52;;;;;;;2.30;1.50;;;24.60;51.10;;;;;;5042670;28;20028;-58
2021/09/19 01:02:19;;;;;;;1.80;1.38;;;24.60;51.10;;;;;;5035406;28;20048;-58
2021/09/19 01:04:46;;;;;;;2.17;1.50;;;24.70;51.20;;;;;;5043255;28;20037;-58
2021/09/19 01:07:13;;;;;;;2.05;1.40;;;24.60;51.10;;;;;;5031022;28;20388;-57
2021/09/19 01:09:40;;;;;;;1.85;1.30;;;24.60;51.10;;;;;;5033239;28;20087;-53
2021/09/19 01:12:07;;;;;;;1.90;1.45;;;24.60;51.60;;;;;;5035218;28;20035;-58
2021/09/19 01:14:35;;;;;;;1.92;1.40;;;24.60;51.10;;;;;;5044078;28;20087;-59
2021/09/19 01:17:00;;;;;;;2.33;1.42;;;24.60;51.10;;;;;;5042797;28;20480;-58
2021/09/19 01:19:26;;;;;;;2.20;1.63;;;24.60;51.10;;;;;;5027430;28;20037;-58
2021/09/19 01:21:52;;;;;;;2.20;1.30;;;24.60;51.20;;;;;;5045409;28;20040;-59
2021/09/19 01:24:18;;;;;;;2.42;1.60;;;24.60;51.20;;;;;;5045800;28;20053;-52
2021/09/19 01:26:44;;;;;;;2.00;1.23;;;24.60;51.70;;;;;;5039330;28;20061;-59
2021/09/19 01:29:10;;;;;;;1.70;1.38;;;24.50;51.10;;;;;;5031717;28;20420;-59
2021/09/19 01:31:36;;;;;;;1.92;1.30;;;24.60;51.20;;;;;;5035544;28;20088;-59
2021/09/19 01:34:02;;;;;;;1.60;1.20;;;24.50;51.20;;;;;;5038395;28;20058;-58
2021/09/19 01:36:33;;;;;;;1.77;1.20;;;24.50;51.20;;;;;;5045053;28;20056;-57
2021/09/19 01:39:00;;;;;;;2.00;1.40;;;24.50;51.20;;;;;;5031005;28;20039;-53
2021/09/19 01:41:26;;;;;;;1.50;1.20;;;24.50;51.20;;;;;;5048172;28;20503;-57
2021/09/19 01:43:54;;;;;;;1.50;1.30;;;24.50;51.20;;;;;;5048423;28;20047;-58
2021/09/19 01:46:19;;;;;;;1.80;1.27;;;24.50;51.20;;;;;;5045655;28;20481;-58
2021/09/19 01:48:45;;;;;;;1.83;1.20;;;24.50;51.20;;;;;;5047850;28;20047;-59
2021/09/19 01:51:11;;;;;;;1.33;1.10;;;24.40;51.20;;;;;;5049481;28;20025;-56
2021/09/19 01:53:38;;;;;;;1.60;1.30;;;24.50;51.20;;;;;;5046026;28;20083;-55
2021/09/19 01:56:05;;;;;;;2.33;1.27;;;24.40;51.20;;;;;;5045282;28;20025;-58
2021/09/19 01:58:31;;;;;;;2.03;1.30;;;24.50;51.20;;;;;;5049818;28;20030;-59
2021/09/19 02:00:58;;;;;;;2.08;1.40;;;24.40;51.20;;;;;;5045028;28;20069;-48
2021/09/19 02:03:24;;;;;;;1.95;1.45;;;24.40;51.20;;;;;;5048302;28;20036;-60
2021/09/19 02:05:50;;;;;;;1.95;1.40;;;24.40;51.20;;;;;;5045308;28;20033;-59
2021/09/19 02:08:15;;;;;;;1.85;1.40;;;24.40;51.20;;;;;;5047742;28;20041;-59
2021/09/19 02:10:41;;;;;;;1.98;1.48;;;24.30;51.20;;;;;;5042824;28;20468;-58
2021/09/19 02:13:07;;;;;;;1.98;1.40;;;24.40;51.20;;;;;;5048130;28;20029;-58
2021/09/19 02:15:32;;;;;;;1.45;1.20;;;24.40;51.20;;;;;;5050014;28;20039;-57
2021/09/19 02:17:58;;;;;;;1.40;1.23;;;24.30;51.20;;;;;;5045297;28;20418;-58
2021/09/19 02:20:24;;;;;;;2.08;1.42;;;24.30;51.20;;;;;;5035404;28;20029;-59
2021/09/19 02:22:49;;;;;;;2.05;1.40;;;24.30;51.20;;;;;;5045469;28;20025;-59
2021/09/19 02:25:16;;;;;;;1.90;1.33;;;24.30;51.20;;;;;;5040380;28;20392;-58
2021/09/19 02:27:42;;;;;;;1.50;1.20;;;24.30;51.20;;;;;;5038289;28;20070;-59
2021/09/19 02:30:10;;;;;;;1.63;1.30;;;24.30;51.20;;;;;;5039805;28;20051;-55
2021/09/19 02:32:36;;;;;;;2.50;1.45;;;24.30;51.30;;;;;;5032636;28;20119;-59
2021/09/19 02:35:03;;;;;;;1.67;1.30;;;24.30;51.30;;;;;;5035343;28;20470;-60
2021/09/19 02:37:29;;;;;;;1.58;1.17;;;24.30;51.30;;;;;;5037761;28;20456;-56
2021/09/19 02:39:54;;;;;;;2.28;1.40;;;24.30;51.30;;;;;;5041441;28;20030;-59
2021/09/19 02:42:20;;;;;;;2.17;1.30;;;24.30;51.30;;;;;;5041929;28;20937;-59
2021/09/19 02:44:45;;;;;;;1.85;1.25;;;24.20;51.30;;;;;;5036757;28;20044;-55
2021/09/19 02:47:11;;;;;;;1.65;1.33;;;24.20;51.20;;;;;;5046720;28;20090;-59
2021/09/19 02:49:37;;;;;;;1.35;1.02;;;24.20;51.30;;;;;;5048180;28;20025;-54
2021/09/19 02:52:03;;;;;;;2.08;1.30;;;24.20;51.30;;;;;;5036557;28;20709;-59
2021/09/19 02:54:29;;;;;;;1.73;1.23;;;24.20;51.30;;;;;;5028845;28;20045;-57
2021/09/19 02:56:54;;;;;;;1.50;1.20;;;24.20;51.30;;;;;;5041447;28;20029;-59
2021/09/19 02:59:21;;;;;;;2.20;1.40;;;24.20;51.30;;;;;;5048458;28;20036;-56
2021/09/19 03:01:46;;;;;;;1.67;1.10;;;24.20;51.30;;;;;;5043939;28;20037;-60
2021/09/19 03:04:12;;;;;;;1.70;1.20;;;24.20;51.30;;;;;;5041698;28;20085;-56
2021/09/19 03:06:38;;;;;;;2.35;1.42;;;24.10;51.30;;;;;;5039748;28;20036;-54
2021/09/19 03:09:04;;;;;;;2.00;1.25;;;24.10;51.30;;;;;;5028063;28;20029;-55
2021/09/19 03:11:30;;;;;;;1.80;1.30;;;24.10;51.30;;;;;;5040243;28;20016;-59
2021/09/19 03:13:55;;;;;;;1.45;1.13;;;24.10;51.30;;;;;;5046037;28;20094;-59
2021/09/19 03:16:21;;;;;;;1.17;1.08;;;24.10;51.40;;;;;;5039550;28;20486;-59
2021/09/19 03:18:47;;;;;;;1.67;1.15;;;24.10;51.30;;;;;;5044736;28;20524;-51
2021/09/19 03:21:13;;;;;;;1.25;1.02;;;24.10;51.40;;;;;;5039958;28;20025;-60
2021/09/19 03:23:39;;;;;;;1.15;0.98;;;24.10;51.40;;;;;;5041298;28;20492;-58
2021/09/19 03:26:04;;;;;;;1.75;1.30;;;24.10;51.40;;;;;;5038871;28;20086;-58
2021/09/19 03:28:31;;;;;;;1.63;1.23;;;24.10;51.40;;;;;;5041824;28;20021;-56
2021/09/19 03:30:56;;;;;;;1.80;1.23;;;24.10;51.40;;;;;;5040313;28;20053;-58
2021/09/19 03:33:22;;;;;;;1.25;1.02;;;24.10;51.40;;;;;;5042498;28;20068;-53
2021/09/19 03:35:47;;;;;;;1.58;1.20;;;24.10;51.40;;;;;;5034682;28;20534;-58
2021/09/19 03:38:13;;;;;;;1.25;1.00;;;24.10;51.40;;;;;;5046120;28;20044;-57
2021/09/19 03:40:39;;;;;;;2.03;1.30;;;24.00;51.30;;;;;;5037737;28;20469;-59
2021/09/19 03:43:04;;;;;;;1.77;1.20;;;24.00;51.30;;;;;;5038665;28;20039;-58
2021/09/19 03:45:30;;;;;;;1.75;1.10;;;24.00;51.40;;;;;;5036420;28;20034;-59
2021/09/19 03:48:08;;;;;;;1.90;1.20;;;24.00;51.40;;;;;;5036536;28;20024;-56
2021/09/19 03:50:34;;;;;;;1.33;1.00;;;24.00;51.40;;;;;;5050552;28;20029;-58
2021/09/19 03:52:59;;;;;;;1.20;1.00;;;24.00;51.40;;;;;;5029979;28;20747;-58
2021/09/19 03:55:26;;;;;;;1.60;1.20;;;24.00;51.40;;;;;;5038355;28;20020;-59
2021/09/19 03:57:52;;;;;;;1.88;1.20;;;24.00;51.40;;;;;;5042983;28;20033;-58
2021/09/19 04:00:18;;;;;;;1.63;1.08;;;24.00;51.40;;;;;;5037247;28;20094;-59
2021/09/19 04:02:43;;;;;;;1.38;1.08;;;24.00;51.40;;;;;;5032256;28;20053;-58
2021/09/19 04:05:11;;;;;;;1.52;1.00;;;23.90;51.40;;;;;;5042626;28;20405;-57
2021/09/19 04:07:37;;;;;;;1.63;1.13;;;23.90;51.40;;;;;;5052071;28;20788;-59
2021/09/19 04:10:05;;;;;;;1.27;1.10;;;23.90;51.40;;;;;;5046225;28;20025;-57
2021/09/19 04:12:31;;;;;;;1.48;1.10;;;23.90;51.40;;;;;;5035030;28;20037;-59
2021/09/19 04:14:57;;;;;;;1.52;1.10;;;23.90;51.40;;;;;;5046315;28;20021;-55
2021/09/19 04:17:23;;;;;;;1.23;1.10;;;23.90;51.40;;;;;;5046510;28;20053;-57
2021/09/19 04:19:48;;;;;;;1.40;1.10;;;23.90;51.90;;;;;;5053975;28;20448;-54
2021/09/19 04:22:14;;;;;;;1.27;1.02;;;23.90;51.40;;;;;;5050663;28;20750;-58
2021/09/19 04:24:39;;;;;;;1.27;1.00;;;23.90;51.40;;;;;;5033100;28;20329;-56
2021/09/19 04:27:06;;;;;;;1.48;1.10;;;23.90;51.90;;;;;;5040320;28;20029;-57
2021/09/19 04:29:34;;;;;;;1.30;1.10;;;23.90;51.40;;;;;;5028793;28;20409;-58
2021/09/19 04:32:00;;;;;;;1.17;1.00;;;23.90;51.40;;;;;;5033756;28;20044;-56
2021/09/19 04:34:25;;;;;;;1.13;1.00;;;23.90;52.00;;;;;;5033999;28;20082;-57
2021/09/19 04:36:51;;;;;;;1.90;1.25;;;23.90;51.40;;;;;;5039842;28;20060;-58
2021/09/19 04:39:17;;;;;;;1.55;1.17;;;23.90;51.40;;;;;;5031232;28;20029;-59
2021/09/19 04:41:43;;;;;;;1.42;1.10;;;23.90;51.40;;;;;;5038614;28;20497;-58
2021/09/19 04:44:08;;;;;;;1.55;1.15;;;23.90;51.40;;;;;;5032365;28;20033;-57
2021/09/19 04:46:34;;;;;;;1.45;1.05;;;23.90;51.50;;;;;;5042242;28;20033;-54
2021/09/19 04:48:59;;;;;;;1.95;1.20;;;23.80;51.40;;;;;;5030782;28;20048;-56
2021/09/19 04:51:25;;;;;;;1.40;1.20;;;23.90;51.40;;;;;;5040386;28;20104;-59
2021/09/19 04:53:51;;;;;;;1.38;1.00;;;23.90;51.50;;;;;;5046123;28;20060;-54
2021/09/19 04:56:17;;;;;;;1.63;1.23;;;23.80;51.40;;;;;;5043980;28;20052;-54
2021/09/19 04:58:42;;;;;;;1.40;1.10;;;23.80;51.40;;;;;;5039428;28;20025;-54
2021/09/19 05:01:08;;;;;;;1.83;1.08;;;23.80;51.50;;;;;;5044854;28;20047;-55
2021/09/19 05:03:33;;;;;;;1.40;1.05;;;23.80;51.50;;;;;;5031181;28;20029;-56
2021/09/19 05:05:59;;;;;;;1.10;1.00;;;23.80;51.50;;;;;;5037052;28;20485;-54
2021/09/19 05:08:25;;;;;;;1.38;1.10;;;23.80;51.50;;;;;;5041728;28;20037;-57
2021/09/19 05:10:51;;;;;;;1.38;1.10;;;23.80;51.50;;;;;;5034688;28;20021;-59
2021/09/19 05:13:18;;;;;;;1.13;1.00;;;23.80;51.50;;;;;;5044042;28;20025;-59
2021/09/19 05:15:43;;;;;;;1.17;1.00;;;23.70;51.90;;;;;;5043123;28;20097;-58
2021/09/19 05:18:09;;;;;;;1.80;1.10;;;23.80;51.50;;;;;;5052603;28;20108;-60
2021/09/19 05:20:35;;;;;;;1.27;1.10;;;23.80;51.50;;;;;;5052625;28;20516;-54
2021/09/19 05:23:00;;;;;;;1.60;1.10;;;23.70;51.40;;;;;;5037641;28;20087;-58
2021/09/19 05:25:26;;;;;;;2.00;1.15;;;23.80;51.50;;;;;;5041219;28;20028;-52
2021/09/19 05:27:51;;;;;;;1.75;1.20;;;23.70;52.00;;;;;;5046557;28;20748;-58
2021/09/19 05:30:18;;;;;;;1.45;1.10;;;23.70;51.40;;;;;;5052255;28;20047;-59
2021/09/19 05:32:43;;;;;;;1.20;1.00;;;23.70;51.40;;;;;;5040477;28;20033;-59
2021/09/19 05:35:09;;;;;;;1.42;1.00;;;23.70;51.50;;;;;;5047795;28;20111;-55
2021/09/19 05:37:36;;;;;;;1.65;1.20;;;23.70;51.50;;;;;;5047767;28;20706;-58
2021/09/19 05:40:03;;;;;;;1.50;1.00;;;23.70;51.50;;;;;;5045706;28;20037;-60
2021/09/19 05:42:29;;;;;;;1.13;0.90;;;23.70;51.50;;;;;;5039872;28;20037;-58
2021/09/19 05:44:54;;;;;;;1.13;0.98;;;23.70;51.50;;;;;;5059587;28;20095;-56
2021/09/19 05:47:20;;;;;;;1.20;1.10;;;23.70;51.50;;;;;;5050751;28;20037;-58
2021/09/19 05:49:46;;;;;;;1.42;1.20;;;23.70;51.50;;;;;;5050369;28;20326;-57
2021/09/19 05:52:11;;;;;;;1.15;1.00;;;23.70;51.50;;;;;;5047007;28;20029;-56
2021/09/19 05:54:37;;;;;;;1.30;1.10;;;23.70;51.50;;;;;;5040609;28;20030;-56
2021/09/19 05:57:02;;;;;;;1.30;1.00;;;23.70;51.50;;;;;;5040634;28;20338;-55
2021/09/19 05:59:28;;;;;;;1.10;0.93;;;23.70;51.50;;;;;;5044587;28;20029;-55
2021/09/19 06:01:54;;;;;;;1.10;1.00;;;23.60;51.50;;;;;;5035827;28;20037;-55
2021/09/19 06:04:19;;;;;;;1.33;0.90;;;23.60;51.50;;;;;;5046447;28;20127;-57
2021/09/19 06:06:45;;;;;;;1.08;0.90;;;23.60;51.50;;;;;;5049814;28;20036;-57
2021/09/19 06:09:11;;;;;;;1.00;0.90;;;23.60;51.40;;;;;;5044489;28;20157;-55
2021/09/19 06:11:37;;;;;;;1.38;1.05;;;23.60;51.40;;;;;;5047505;28;20442;-59
2021/09/19 06:14:02;;;;;;;1.10;0.93;;;23.60;51.40;;;;;;5042889;28;20094;-54
2021/09/19 06:16:28;;;;;;;1.10;1.00;;;23.60;51.40;;;;;;5048244;28;20167;-59
2021/09/19 06:18:54;;;;;;;1.52;1.00;;;23.60;51.40;;;;;;5046176;28;20017;-58
2021/09/19 06:21:19;;;;;;;1.08;0.82;;;23.60;51.40;;;;;;5048785;28;20025;-56
2021/09/19 06:23:45;;;;;;;2.17;1.02;;;23.60;51.40;;;;;;5037037;28;20060;-59
2021/09/19 06:26:10;;;;;;;1.40;1.10;;;23.60;51.40;;;;;;5041537;28;20060;-59
2021/09/19 06:28:36;;;;;;;1.17;1.00;;;23.60;51.40;;;;;;5038932;28;20017;-56
2021/09/19 06:31:02;;;;;;;1.45;1.00;;;23.60;51.40;;;;;;5057854;28;20025;-58
2021/09/19 06:33:28;;;;;;;1.60;1.10;;;23.60;51.40;;;;;;5037428;28;20492;-59
2021/09/19 06:35:53;;;;;;;1.30;1.08;;;23.60;51.40;;;;;;5038985;28;20045;-58
2021/09/19 06:38:19;;;;;;;1.17;0.95;;;23.60;51.40;;;;;;5036086;28;20381;-57
2021/09/19 06:40:45;;;;;;;1.25;1.00;;;23.60;51.40;;;;;;5043856;28;20017;-58
2021/09/19 06:43:10;;;;;;;1.42;1.02;;;23.50;51.40;;;;;;5041623;28;20067;-59
2021/09/19 06:45:36;;;;;;;0.80;0.80;;;23.50;51.40;;;;;;5043659;28;20396;-59
2021/09/19 06:48:02;;;;;;;1.48;1.10;;;23.50;51.40;;;;;;5038412;28;20075;-59
2021/09/19 06:50:27;;;;;;;1.15;0.90;;;23.50;51.40;;;;;;5029699;28;20464;-58
2021/09/19 06:52:53;;;;;;;0.88;0.88;;;23.50;51.30;;;;;;5044548;28;20541;-54
2021/09/19 06:55:19;;;;;;;1.10;0.90;;;23.50;51.30;;;;;;5030268;28;20053;-57
2021/09/19 06:57:46;;;;;;;1.00;0.80;;;23.50;51.30;;;;;;5040285;28;20043;-53
2021/09/19 07:00:12;;;;;;;1.15;1.00;;;23.50;51.40;;;;;;5041886;28;20578;-57
2021/09/19 07:02:37;;;;;;;1.00;0.90;;;23.50;51.30;;;;;;5042125;28;20379;-56
2021/09/19 07:05:04;;;;;;;1.00;0.90;;;23.50;51.30;;;;;;5034048;28;20033;-59
2021/09/19 07:07:30;;;;;;;0.90;0.80;;;23.50;51.30;;;;;;5037998;28;20052;-57
2021/09/19 07:09:55;;;;;;;1.75;1.10;;;23.50;51.30;;;;;;5041874;28;20025;-56
2021/09/19 07:12:21;;;;;;;1.08;0.98;;;23.50;51.30;;;;;;5037645;28;20029;-57
2021/09/19 07:14:47;;;;;;;1.15;0.90;;;23.40;51.30;;;;;;5039150;28;20024;-57
2021/09/19 07:17:13;;;;;;;0.90;0.82;;;23.50;51.30;;;;;;5036968;28;20740;-57
2021/09/19 07:19:38;;;;;;;1.63;0.90;;;23.40;51.30;;;;;;5036776;28;20055;-58
2021/09/19 07:22:04;;;;;;;1.00;0.80;;;23.40;51.30;;;;;;5037919;28;20032;-55
2021/09/19 07:24:30;;;;;;;0.95;0.82;;;23.40;51.30;;;;;;5042004;28;20135;-59
2021/09/19 07:26:55;;;;;;;1.45;1.00;;;23.40;51.30;;;;;;5046489;28;20400;-54
2021/09/19 07:29:21;;;;;;;1.17;1.00;;;23.40;51.30;;;;;;5030446;28;20037;-54
2021/09/19 07:31:50;;;;;;;1.20;0.95;;;23.40;51.30;;;;;;5031047;28;20034;-57
2021/09/19 07:34:16;;;;;;;1.33;0.90;;;23.40;51.30;;;;;;5046721;28;20033;-58
2021/09/19 07:36:42;;;;;;;1.33;0.93;;;23.40;51.20;;;;;;5036166;28;20125;-54
2021/09/19 07:39:08;;;;;;;1.20;0.98;;;23.40;51.30;;;;;;5040257;28;20436;-55
2021/09/19 07:41:34;;;;;;;1.25;1.02;;;23.40;51.30;;;;;;5044511;28;20048;-57
2021/09/19 07:44:00;;;;;;;0.93;0.80;;;23.40;51.30;;;;;;5029738;28;20104;-59
2021/09/19 07:46:26;;;;;;;1.08;0.90;;;23.40;51.30;;;;;;5037868;28;20029;-54
2021/09/19 07:48:52;;;;;;;0.90;0.82;;;23.40;51.30;;;;;;5030312;28;20029;-58
2021/09/19 07:51:18;;;;;;;0.90;0.80;;;23.40;51.30;;;;;;5033084;28;20131;-58
2021/09/19 07:53:47;;;;;;;0.93;0.80;;;23.40;51.30;;;;;;5030194;28;20033;-58
2021/09/19 07:56:13;;;;;;;0.80;0.80;;;23.40;51.30;;;;;;5032848;28;20036;-58
2021/09/19 07:58:38;;;;;;;1.15;0.90;;;23.40;51.30;;;;;;5043891;28;20045;-51
2021/09/19 08:01:05;;;;;;;1.40;0.90;;;23.40;51.40;;;;;;5034758;28;20037;-56
2021/09/19 08:03:30;;;;;;;0.73;0.70;;;23.40;51.40;;;;;;5035663;28;20037;-51
2021/09/19 08:05:56;;;;;;;1.40;0.80;;;23.40;51.40;;;;;;5038230;28;20021;-55
2021/09/19 08:08:22;;;;;;;1.35;0.93;;;23.40;51.40;;;;;;5034194;28;20052;-57
2021/09/19 08:10:48;;;;;;;1.10;1.00;;;23.40;51.40;;;;;;5039635;28;20039;-54
2021/09/19 08:13:13;;;;;;;0.85;0.80;;;23.40;51.50;;;;;;5028255;28;20109;-55
2021/09/19 08:15:40;;;;;;;1.15;0.90;;;23.40;51.50;;;;;;5029393;28;20060;-53
2021/09/19 08:18:06;;;;;;;1.13;0.80;;;23.30;51.40;;;;;;5040289;28;20558;-50
2021/09/19 08:20:31;;;;;;;1.00;0.90;;;23.40;51.40;;;;;;5045689;28;20036;-52
2021/09/19 08:22:57;;;;;;;1.17;1.00;;;23.30;51.40;;;;;;5039502;28;20394;-57
2021/09/19 08:25:25;;;;;;;1.08;0.90;;;23.30;51.40;;;;;;5041585;28;20661;-55
2021/09/19 08:27:52;;;;;;;0.95;0.80;;;23.30;51.40;;;;;;5040144;28;20025;-54
2021/09/19 08:30:18;;;;;;;1.33;1.00;;;23.30;51.30;;;;;;5043307;28;20029;-56
2021/09/19 08:32:44;;;;;;;1.50;1.30;;;23.30;51.40;;;;;;5030961;28;20342;-58
2021/09/19 08:35:11;;;;;;;1.25;0.90;;;23.40;51.40;;;;;;5042174;28;20044;-58
2021/09/19 08:37:38;;;;;;;1.52;1.00;;;23.40;51.40;;;;;;5036117;28;20074;-59
2021/09/19 08:40:06;;;;;;;1.75;1.00;;;23.30;51.40;;;;;;5035130;28;20033;-58
2021/09/19 08:42:32;;;;;;;1.00;0.90;;;23.30;51.30;;;;;;5055891;28;20113;-54
2021/09/19 08:44:58;;;;;;;1.33;1.00;;;23.40;51.40;;;;;;5038697;28;20062;-56
2021/09/19 08:47:27;;;;;;;1.33;0.80;;;23.40;51.40;;;;;;5039708;28;20032;-56
2021/09/19 08:49:53;;;;;;;;;;;23.40;51.40;;;;;;5036792;28;20029;-55
2021/09/19 08:52:19;;;;;;;0.90;0.85;;;23.40;51.40;;;;;;5036972;28;19917;-57
2021/09/19 08:54:44;;;;;;;1.23;0.93;;;23.40;51.40;;;;;;5026304;28;20029;-53
2021/09/19 08:57:10;;;;;;;0.88;0.75;;;23.40;51.40;;;;;;5039917;28;20503;-58
2021/09/19 08:59:47;;;;;;;1.20;1.00;;;23.40;51.40;;;;;;5041745;28;20048;-57
2021/09/19 09:02:16;;;;;;;2.00;1.02;;;23.40;51.40;;;;;;5051465;28;20118;-54
2021/09/19 09:04:43;;;;;;;1.20;0.90;;;23.40;51.40;;;;;;5037058;28;20037;-56
2021/09/19 09:07:11;;;;;;;1.35;0.90;;;23.40;51.40;;;;;;5037537;28;20408;-56
2021/09/19 09:09:38;;;;;;;1.20;0.90;;;23.30;51.40;;;;;;5042873;28;20151;-57
2021/09/19 09:12:11;;;;;;;1.30;1.00;;;23.30;51.40;;;;;;5032372;28;20731;-59
2021/09/19 09:14:40;;;;;;;1.10;0.90;;;23.30;51.40;;;;;;5036789;28;20048;-57
2021/09/19 09:17:10;;;;;;;;;;;23.30;51.40;;;;;;5038071;28;20067;-55
2021/09/19 09:19:39;;;;;;;1.08;0.90;;;23.30;51.40;;;;;;5037784;28;19989;-59
2021/09/19 09:22:06;;;;;;;1.10;0.90;;;23.30;51.40;;;;;;5036857;28;20044;-55
2021/09/19 09:24:31;;;;;;;0.90;0.80;;;23.30;51.40;;;;;;5038769;28;20045;-57
2021/09/19 09:26:57;;;;;;;1.13;0.88;;;23.40;52.00;;;;;;5040574;28;20041;-52
2021/09/19 09:29:23;;;;;;;0.93;0.80;;;23.30;51.40;;;;;;5038481;28;20024;-58
2021/09/19 09:31:51;;;;;;;1.42;1.05;;;23.30;51.40;;;;;;5041736;28;20025;-56
2021/09/19 09:34:23;;;;;;;2.17;1.08;;;23.30;51.40;;;;;;5042330;28;20029;-57
2021/09/19 09:36:57;;;;;;;1.55;1.00;;;23.30;51.40;;;;;;5039625;28;20022;-56
2021/09/19 09:39:30;;;;;;;1.45;0.90;;;23.30;51.40;;;;;;5038653;28;20029;-58
2021/09/19 09:42:17;;;;;;;1.50;1.00;;;23.30;51.50;;;;;;5028328;28;20081;-59
2021/09/19 09:44:48;;;;;;;1.85;0.98;;;23.30;51.50;;;;;;5034356;28;20045;-59
2021/09/19 09:47:13;;;;;;;1.40;0.90;;;23.40;51.50;;;;;;5034575;28;20029;-59
2021/09/19 09:49:42;;;;;;;1.85;1.10;;;23.30;51.50;;;;;;5039715;28;20370;-54
2021/09/19 09:52:29;;;;;;;2.40;1.20;;;23.30;51.50;;;;;;5036304;28;20029;-58
2021/09/19 09:55:08;;;;;;;3.45;1.50;;;23.30;51.50;;;;;;5043519;28;20436;-57
2021/09/19 09:57:34;;;;;;;2.55;1.23;;;23.30;51.50;;;;;;5032306;28;20033;-56
2021/09/19 10:00:05;;;;;;;3.10;1.77;;;23.30;51.50;;;;;;5040680;28;20037;-54
2021/09/19 10:02:33;;;;;;;3.67;1.92;;;23.30;51.50;;;;;;5039575;28;20025;-56
2021/09/19 10:04:59;;;;;;;5.90;3.00;;;23.30;51.60;;;;;;5046964;28;20037;-59
2021/09/19 10:07:26;;;;;;;10.90;4.82;;;23.30;51.50;;;;;;5041262;28;20088;-57
2021/09/19 10:09:52;;;;;;;10.68;6.25;;;23.30;51.50;;;;;;5042762;28;20127;-57
2021/09/19 10:12:20;;;;;;;15.43;8.70;;;23.30;51.60;;;;;;5037180;28;21572;-57
2021/09/19 10:14:51;;;;;;;12.93;7.90;;;23.30;51.60;;;;;;5034681;28;20049;-58
2021/09/19 10:17:21;;;;;;;11.55;6.85;;;23.30;51.60;;;;;;5044032;28;20071;-58
2021/09/19 10:19:48;;;;;;;9.18;5.78;;;23.30;51.60;;;;;;5035562;28;20571;-53
2021/09/19 10:22:21;;;;;;;8.88;4.97;;;23.30;51.60;;;;;;5060775;28;20079;-57
2021/09/19 10:24:46;;;;;;;8.38;4.90;;;23.30;51.60;;;;;;5062995;28;20048;-57
2021/09/19 10:27:25;;;;;;;9.63;5.47;;;23.30;51.60;;;;;;5038624;28;20032;-57
2021/09/19 10:30:10;;;;;;;10.77;6.20;;;23.30;51.60;;;;;;5039232;28;20021;-58
2021/09/19 10:32:47;;;;;;;9.93;6.28;;;23.30;51.60;;;;;;5028081;28;20453;-58
2021/09/19 10:35:29;;;;;;;11.25;7.57;;;23.30;51.60;;;;;;5020297;28;20135;-60
2021/09/19 10:38:04;;;;;;;12.60;7.60;;;23.30;51.60;;;;;;5019290;28;20033;-59
2021/09/19 10:40:34;;;;;;;11.48;7.45;;;23.30;51.70;;;;;;5021133;28;20030;-59
2021/09/19 10:43:01;;;;;;;12.60;7.55;;;23.30;51.70;;;;;;5020613;28;20812;-59
2021/09/19 10:45:44;;;;;;;11.43;7.35;;;23.30;51.60;;;;;;5021166;28;20026;-58
2021/09/19 10:48:40;;;;;;;11.82;7.47;;;23.30;51.70;;;;;;5016426;28;20505;-59
2021/09/19 10:51:07;;;;;;;12.55;7.72;;;23.30;51.70;;;;;;5016253;28;20114;-59
2021/09/19 10:53:49;;;;;;;14.60;8.18;;;23.30;51.70;;;;;;5007807;28;20379;-57
2021/09/19 10:56:15;;;;;;;12.13;7.68;;;23.40;51.80;;;;;;5017190;28;20739;-58
2021/09/19 10:58:46;;;;;;;14.40;8.77;;;23.40;51.80;;;;;;5011405;28;20061;-59
2021/09/19 11:01:17;;;;;;;14.15;8.90;;;23.30;51.90;;;;;;5020695;28;20038;-57
2021/09/19 11:04:06;;;;;;;14.77;8.95;;;23.40;52.00;;;;;;5017106;28;20378;-59
2021/09/19 11:06:35;;;;;;;15.93;8.73;;;23.40;52.00;;;;;;5017956;28;20061;-59
2021/09/19 11:09:21;;;;;;;14.38;8.77;;;23.40;52.00;;;;;;5013574;28;20026;-59
2021/09/19 11:12:07;;;;;;;14.27;8.85;;;23.40;52.00;;;;;;5016788;28;20029;-59
2021/09/19 11:14:57;;;;;;;13.30;8.25;;;23.40;52.00;;;;;;5014452;28;20042;-57
2021/09/19 11:17:24;;;;;;;15.57;8.60;;;23.40;52.00;;;;;;5020244;28;20622;-59
2021/09/19 11:20:10;;;;;;;14.70;8.88;;;23.40;52.00;;;;;;5015919;28;20034;-57
2021/09/19 11:22:36;;;;;;;13.15;8.32;;;23.40;51.90;;;;;;5015643;28;20044;-59
2021/09/19 11:25:04;;;;;;;13.80;8.65;;;23.40;52.00;;;;;;5005396;28;20536;-59
2021/09/19 11:27:33;;;;;;;14.07;8.23;;;23.40;52.50;;;;;;5014476;28;20060;-59
2021/09/19 11:29:59;;;;;;;14.25;8.40;;;23.40;52.00;;;;;;5027903;28;20100;-59
2021/09/19 11:32:28;;;;;;;13.93;8.65;;;23.40;52.00;;;;;;5036251;28;20128;-57
2021/09/19 11:34:54;;;;;;;14.40;8.63;;;23.40;52.00;;;;;;5031927;28;20028;-59
2021/09/19 11:37:20;;;;;;;14.32;8.75;;;23.40;52.00;;;;;;5040305;28;20040;-57
2021/09/19 11:39:46;;;;;;;15.40;8.82;;;23.40;52.00;;;;;;5026757;28;20112;-58
2021/09/19 11:42:13;;;;;;;11.52;8.13;;;23.40;52.00;;;;;;5029865;28;20121;-59
2021/09/19 11:44:50;;;;;;;13.77;8.20;;;23.40;52.00;;;;;;5032335;28;20028;-57
2021/09/19 11:47:20;;;;;;;12.38;7.75;;;23.40;52.10;;;;;;5031802;28;20030;-59
2021/09/19 11:49:50;;;;;;;13.48;8.57;;;23.40;52.10;;;;;;5041212;28;20070;-59
2021/09/19 11:52:16;;;;;;;11.95;8.00;;;23.50;52.20;;;;;;5036992;28;20044;-58
2021/09/19 11:54:43;;;;;;;13.05;8.55;;;23.50;52.20;;;;;;5041298;28;20105;-59
2021/09/19 11:57:11;;;;;;;12.85;8.13;;;23.50;52.10;;;;;;5030846;28;20789;-57
2021/09/19 11:59:40;;;;;;;11.82;7.60;;;23.50;52.10;;;;;;5042830;28;20498;-59
2021/09/19 12:02:08;;;;;;;11.85;7.72;;;23.60;52.20;;;;;;5028036;28;20120;-58
2021/09/19 12:04:33;;;;;;;12.65;7.68;;;23.60;52.20;;;;;;5030222;28;20039;-58
2021/09/19 12:07:00;;;;;;;13.05;8.25;;;23.60;52.20;;;;;;5029807;28;20334;-60
2021/09/19 12:09:26;;;;;;;11.73;7.63;;;23.60;52.60;;;;;;5029794;28;20754;-60
2021/09/19 12:11:55;;;;;;;12.43;7.95;;;23.60;52.20;;;;;;5025889;28;20060;-58
2021/09/19 12:14:22;;;;;;;11.45;7.20;;;23.60;52.10;;;;;;5027695;28;20063;-60
2021/09/19 12:17:11;;;;;;;11.50;7.47;;;23.60;52.10;;;;;;5033506;28;20018;-59
2021/09/19 12:19:41;;;;;;;10.38;7.15;;;23.60;52.20;;;;;;5027957;28;20476;-60
2021/09/19 12:22:21;;;;;;;10.40;6.90;;;23.60;52.10;;;;;;5026842;28;20051;-59
2021/09/19 12:24:52;;;;;;;11.27;7.53;;;23.60;52.10;;;;;;5044650;28;20037;-58
2021/09/19 12:27:23;;;;;;;11.10;7.55;;;23.60;52.20;;;;;;5028527;28;20029;-59
2021/09/19 12:30:01;;;;;;;12.00;7.28;;;23.60;52.10;;;;;;5026138;28;20424;-59
2021/09/19 12:32:34;;;;;;;11.07;7.20;;;23.60;52.10;;;;;;5032670;28;20048;-59
2021/09/19 12:35:01;;;;;;;12.55;7.45;;;23.60;52.10;;;;;;5031600;28;20512;-59
2021/09/19 12:37:33;;;;;;;12.45;7.32;;;23.60;52.20;;;;;;5026564;28;20053;-57
2021/09/19 12:40:26;;;;;;;12.20;7.60;;;23.60;52.20;;;;;;5030349;28;20076;-59
2021/09/19 12:43:01;;;;;;;12.52;7.47;;;23.60;52.20;;;;;;5034400;28;20080;-58
2021/09/19 12:45:27;;;;;;;12.23;7.40;;;23.60;52.10;;;;;;5031873;28;20048;-60
2021/09/19 12:47:55;;;;;;;10.75;7.45;;;23.70;52.20;;;;;;5038857;28;20029;-59